ADVERTISEMENT

iOS app on App Store Android app on Google Play

2017 \ Homeboy 5K - September 23, 2017

Notes Pages Download Filter By
  [1] 2 3 4 5 6 7 8 9 10 11 12 13 14 15 16 17 18 19 20 21 22




Keyword Exact  
Division

Bib Division Last Name First Name Division Place Total Time Overall City State
1621 16-18 Male Shively Xian 1 00:15:28 1 Alhambra CA
1226 35-44 Male Weis Rick 1 00:15:54 2 El Segundo CA
1838 35-44 Male Silva Samuel 2 00:16:49 3 Los Angeles CA
1681 35-44 Male Kerkman Mike 3 00:16:59 4 Los Angeles CA
1708 13-15 Male O'callahan Conor 1 00:17:16 5 Los Angeles CA
2218 25-34 Male Shropshire Claudius 1 00:17:16 6 Los Angeles CA
993 25-34 Male Newell Danny 2 00:17:21 7 Oakland CA
1281 13-15 Male Labrador William 2 00:17:39 8 Pasadena CA
1787 25-34 Male Mingione Calvin 3 00:17:40 9 Long Beach CA
2103 13-15 Male Weiss Joshua 3 00:17:48 10 Sherman Oaks CA
1287 13-15 Male Godfrey Wyckliffe 4 00:17:48 11 Los Angeles CA
1740 13-15 Male Minck Rand 5 00:17:54 12 Sherman Oaks CA
2354 13-15 Male Alvarez Daniel 6 00:18:02 13 Los Angeles CA
1383 13-15 Male Hayes Evan 7 00:18:03 14 San Marino CA
2120 25-34 Male Booth Jason 4 00:18:06 15 Los Angeles CA
1664 13-15 Male Yoong Nicholas 8 00:18:20 16 San Marino CA
1326 13-15 Male Miera Anthony 9 00:18:22 17 Pasadena CA
2121 55-64 Male Vega Martin 1 00:18:28 18 CA
2524 45-54 Male Kopelman William 1 00:18:29 19 Los Angeles CA
2015 55-64 Male Cotti Ted 2 00:18:31 20 Ojai CA
1285 13-15 Male Murillo Raul 10 00:18:46 21 Tujunga CA
1307 16-18 Male Mendoza Marcos 2 00:18:56 22 Commerce CA
2107 45-54 Male Lawler Jeffrey 2 00:18:58 23 Los Angeles CA
1233 13-15 Male Salinas Gabriel 11 00:18:58 24 Pasadena CA
1236 16-18 Male Queano Christopher 3 00:19:01 25 North Hills CA
2336 16-18 Male Monteil Lorenzo 4 00:19:04 26 San Marino CA
2017 25-34 Male Kinman Grant 5 00:19:07 27 Los Angeles CA
1707 16-18 Male Medrano Nicolas 5 00:19:11 28 Glendale CA
2206 19-24 Male Babcock Adam 1 00:19:12 29 Malibu CA
844 25-34 Male Fraire Esteban 6 00:19:13 30 Los Angeles CA
2134 35-44 Male Womac Joe 4 00:19:13 31 Santa Monica CA
1620 16-18 Male Hogan Justin 6 00:19:16 32 La Canada Flintridge CA
2240 16-18 Male Lu Albert 7 00:19:20 33 South Pasadena CA
1410 35-44 Male Valdovino Cesar 5 00:19:23 34
1983 35-44 Male Mcguinness John 6 00:19:35 35 Los Angeles CA
2255 16-18 Male Borkovich Nick 8 00:19:36 36 Los Angeles CA
1341 45-54 Male Bautista Rogelio 3 00:19:46 37 Los Angeles CA
263 35-44 Male Munguia Danny 7 00:19:56 38 Monrovia CA
994 13-15 Male Ancheta Jeremy 12 00:20:06 39 Pasadena CA
1890 25-34 Male Wakefield Ryan 7 00:20:22 40 Garden Grove CA
2337 13-15 Male Suarez Diego 13 00:20:24 41 Los Angeles CA
1291 25-34 Male Olive George 8 00:20:28 42 Los Angeles
1219 35-44 Male De Jesus Roman 8 00:20:34 43 Long Beach CA
944 25-34 Male Ortiz Emilio 9 00:20:36 44 Los Angeles CA
370 25-34 Male Harwood Henrick 10 00:20:39 45
1360 16-18 Male Mythong Isaac 9 00:20:45 46
1089 35-44 Male Deleage Emmanuel 9 00:20:50 47 Los Angeles CA
2185 35-44 Male Batchelder Brian 10 00:20:53 48 Santa Ana CA
1680 35-44 Male Flores Eddie 11 00:20:56 49 Glendale CA
2338 13-15 Male Osterman Ben 14 00:20:56 50 San Pedro CA
1208 25-34 Male Reed Chris 11 00:20:57 51 Los Angeles CA
1232 13-15 Male Salinas Francisco 15 00:21:00 52 Pasadena CA
2407 25-34 Female Holland-stergar Brianne 1 00:21:03 53 Los Angeles CA
1038 16-18 Female Schleifer Sophie 1 00:21:09 54 Pasadena CA
1040 16-18 Female Wheeler Vivian 2 00:21:09 55 Sierra Madre CA
301 19-24 Male Jaimes David 2 00:21:12 56 Los Angeles CA
174 25-34 Male Owen Justin 12 00:21:13 57
636 Age Unknown - Male Martinez Carlos 1 00:21:19 58
2221 25-34 Female Borges Steph 2 00:21:23 59 Los Angeles CA
863 Age Unknown - Male Larsen Colin 2 00:21:27 60
845 25-34 Male Hernandez Ivan 13 00:21:29 61 Los Angeles CA
1413 35-44 Male Villanueva Ben 12 00:21:36 62
1314 45-54 Male Sell David 4 00:21:40 63 Leawood KS
1243 55-64 Male Sepulveda Lamar 3 00:21:42 64 Los Angeles CA
316 25-34 Male Camey Maynor 14 00:21:44 65 Burbank CA
128 19-24 Male Rezende-shalom John 3 00:21:45 66 Van Nuys CA
1384 45-54 Male Hayes Jordan 5 00:21:52 67 San Marino CA
1998 35-44 Male Carlson Matthew 13 00:21:55 68 Los Angeles CA
1984 13-15 Male Zapata Ryan 16 00:21:57 69 Glendale CA
1191 Age Unknown - Male Cadena Jose 3 00:21:59 70
2156 25-34 Female Barron Stacy 3 00:22:01 71 Los Angeles CA
991 13-15 Male Cruz Isaiah 17 00:22:02 72 Montebello
1347 25-34 Female Clow Gillian 4 00:22:05 73 Playa Del Rey CA
2217 25-34 Female Perry Nicole 5 00:22:06 74 CA
402 35-44 Female Bolton Kirsten 1 00:22:10 75 Studio City CA
1934 25-34 Male Valencia Abel 15 00:22:14 76 Westminster CA
1271 19-24 Male Lopez Sebastian 4 00:22:15 77 Los Angeles CA
2149 35-44 Female Lee Donna 2 00:22:17 78 Los Angeles CA
1094 19-24 Male Hairston JR. James 5 00:22:20 79 Los Angeles CA
77 25-34 Male Peykov Alex 16 00:22:21 80 Los Angeles CA
2102 35-44 Male Alvarez Roberto 14 00:22:21 81 Pasadena CA
149 35-44 Male Rivera Francisco 15 00:22:22 82
1665 16-18 Male Miller Jesse 10 00:22:26 83 Pasadena CA
2557 19-24 Male Swofford Brandon 6 00:22:28 84
2030 13-15 Male Nishiyama Ryan 18 00:22:29 85 Temple City CA
1967 55-64 Male Jimenez Feliciano 4 00:22:31 86 Los Angeles CA
1899 35-44 Male Fan Edward 16 00:22:32 87 Monrovia CA
869 25-34 Female Dobson Anne 6 00:22:36 88 Los Angeles CA
1561 25-34 Male Kelley Myles 17 00:22:38 89 Culver City CA
1611 35-44 Male Aguilar Jose-antonio 17 00:22:40 90 Los Angeles CA
1327 1-12 Female Miera Natalie 1 00:22:42 91 Pasadena CA
1342 25-34 Male Kemp JR. Stephen 18 00:22:49 92 Colton CA
1328 35-44 Female Ghaffar Ruby 3 00:22:49 93 Manhattan Beach CA
1820 16-18 Male Deming Stuart 11 00:22:50 94 Los Angeles CA
2359 Age Unknown - Male Medina Rudy 4 00:22:57 95
2213 35-44 Male Thornburg Thatcher 18 00:22:58 96 La Crescenta CA
1117 13-15 Male Brossus Paul 19 00:22:59 97 Los Angeles CA
853 25-34 Female Barragan Taylor 7 00:23:00 98 Los Angeles CA
1130 13-15 Male Woods Milo 20 00:23:08 99 Los Angeles CA
2148 25-34 Male O Sean 19 00:23:09 100 La CA